Time,TemperatureF,DewpointF,PressureIn,WindDirection,WindDirectionDegrees,WindSpeedMPH,WindSpeedGustMPH,Humidity,HourlyPrecipIn,Conditions,Clouds,dailyrainin,SolarRadiationWatts/m^2,SoftwareType,DateUTC
2013-04-26 00:02:00,54.0,25.0,-100.00,NE,42,5.0,10.0,32,0.00,,,0.00,0.000000,,2013-04-26 06:02:00,
2013-04-26 00:11:00,54.0,25.0,-100.00,NE,42,5.0,10.0,32,0.00,,,0.00,0.000000,,2013-04-26 06:11:00,
2013-04-26 00:21:00,54.0,25.0,-100.00,NE,42,5.0,10.0,32,0.00,,,0.00,0.000000,,2013-04-26 06:21:00,
2013-04-26 00:32:00,54.0,25.0,-100.00,NE,42,5.0,10.0,32,0.00,,,0.00,0.000000,,2013-04-26 06:32:00,
2013-04-26 00:41:00,54.0,25.0,-100.00,NE,42,5.0,10.0,32,0.00,,,0.00,0.000000,,2013-04-26 06:41:00,
2013-04-26 00:42:00,52.0,27.0,-100.00,NE,49,1.0,7.0,37,0.00,,,0.00,0.000000,,2013-04-26 06:42:00,
2013-04-26 01:01:00,52.0,27.0,-100.00,NE,49,1.0,7.0,37,0.00,,,0.00,0.000000,,2013-04-26 07:01:00,
2013-04-26 01:11:00,52.0,27.0,-100.00,NE,49,1.0,7.0,37,0.00,,,0.00,0.000000,,2013-04-26 07:11:00,
2013-04-26 01:22:00,52.0,27.0,-100.00,NE,49,1.0,7.0,37,0.00,,,0.00,0.000000,,2013-04-26 07:22:00,
2013-04-26 01:31:00,52.0,27.0,-100.00,NE,49,1.0,7.0,37,0.00,,,0.00,0.000000,,2013-04-26 07:31:00,
2013-04-26 01:42:00,48.0,27.0,-100.00,WSW,242,1.0,9.0,44,0.00,,,0.00,0.000000,,2013-04-26 07:42:00,
2013-04-26 02:02:00,48.0,27.0,-100.00,WSW,242,1.0,9.0,44,0.00,,,0.00,0.000000,,2013-04-26 08:02:00,
2013-04-26 02:11:00,48.0,27.0,-100.00,WSW,242,1.0,9.0,44,0.00,,,0.00,0.000000,,2013-04-26 08:11:00,
2013-04-26 02:21:00,48.0,27.0,-100.00,WSW,242,1.0,9.0,44,0.00,,,0.00,0.000000,,2013-04-26 08:21:00,
2013-04-26 02:31:00,48.0,27.0,-100.00,WSW,242,1.0,9.0,44,0.00,,,0.00,0.000000,,2013-04-26 08:31:00,
2013-04-26 02:42:00,48.0,28.0,-100.00,NNW,331,3.0,7.0,46,0.00,,,0.00,0.000000,,2013-04-26 08:42:00,
2013-04-26 03:01:00,48.0,28.0,-100.00,NNW,331,3.0,7.0,46,0.00,,,0.00,0.000000,,2013-04-26 09:01:00,
2013-04-26 03:11:00,48.0,28.0,-100.00,NNW,331,3.0,7.0,46,0.00,,,0.00,0.000000,,2013-04-26 09:11:00,
2013-04-26 03:21:00,48.0,28.0,-100.00,NNW,331,3.0,7.0,46,0.00,,,0.00,0.000000,,2013-04-26 09:21:00,
2013-04-26 03:32:00,48.0,28.0,-100.00,NNW,331,3.0,7.0,46,0.00,,,0.00,0.000000,,2013-04-26 09:32:00,
2013-04-26 04:03:00,50.0,28.0,-100.00,NE,56,5.0,11.0,43,0.00,,,0.00,0.000000,,2013-04-26 10:03:00,
2013-04-26 04:12:00,50.0,28.0,-100.00,NE,56,5.0,11.0,43,0.00,,,0.00,0.000000,,2013-04-26 10:12:00,
2013-04-26 04:22:00,50.0,28.0,-100.00,NE,56,5.0,11.0,43,0.00,,,0.00,0.000000,,2013-04-26 10:22:00,
2013-04-26 04:33:00,50.0,28.0,-100.00,NE,56,5.0,11.0,43,0.00,,,0.00,0.000000,,2013-04-26 10:33:00,
2013-04-26 04:41:00,50.0,28.0,-100.00,NE,56,5.0,11.0,43,0.00,,,0.00,0.000000,,2013-04-26 10:41:00,
2013-04-26 05:02:00,47.0,28.0,-100.00,NNW,344,3.0,8.0,47,0.00,,,0.00,0.000000,,2013-04-26 11:02:00,
2013-04-26 05:11:00,47.0,28.0,-100.00,NNW,344,3.0,8.0,47,0.00,,,0.00,0.000000,,2013-04-26 11:11:00,
2013-04-26 05:22:00,47.0,28.0,-100.00,NNW,344,3.0,8.0,47,0.00,,,0.00,0.000000,,2013-04-26 11:22:00,
2013-04-26 05:32:00,47.0,28.0,-100.00,NNW,344,3.0,8.0,47,0.00,,,0.00,0.000000,,2013-04-26 11:32:00,
2013-04-26 05:41:00,47.0,28.0,-100.00,NNW,344,3.0,8.0,47,0.00,,,0.00,0.000000,,2013-04-26 11:41:00,
2013-04-26 06:01:00,47.0,28.0,-100.00,North,351,2.0,7.0,48,0.00,,,0.00,0.000000,,2013-04-26 12:01:00,
2013-04-26 06:11:00,47.0,28.0,-100.00,North,351,2.0,7.0,48,0.00,,,0.00,0.000000,,2013-04-26 12:11:00,
2013-04-26 06:21:00,47.0,28.0,-100.00,North,351,2.0,7.0,48,0.00,,,0.00,0.000000,,2013-04-26 12:21:00,
2013-04-26 06:32:00,47.0,28.0,-100.00,North,351,2.0,7.0,48,0.00,,,0.00,0.000000,,2013-04-26 12:32:00,
2013-04-26 06:41:00,47.0,28.0,-100.00,North,351,2.0,7.0,48,0.00,,,0.00,0.000000,,2013-04-26 12:41:00,
2013-04-26 07:01:00,47.0,28.0,-100.00,North,3,2.0,7.0,48,0.00,,,0.00,1.000000,,2013-04-26 13:01:00,
2013-04-26 07:11:00,47.0,28.0,-100.00,North,3,2.0,7.0,48,0.00,,,0.00,1.000000,,2013-04-26 13:11:00,
2013-04-26 07:21:00,47.0,28.0,-100.00,North,3,2.0,7.0,48,0.00,,,0.00,1.000000,,2013-04-26 13:21:00,
2013-04-26 07:31:00,47.0,28.0,-100.00,North,3,2.0,7.0,48,0.00,,,0.00,1.000000,,2013-04-26 13:31:00,
2013-04-26 07:41:00,47.0,28.0,-100.00,North,3,2.0,7.0,48,0.00,,,0.00,1.000000,,2013-04-26 13:41:00,
2013-04-26 08:01:00,49.0,30.0,-100.00,NE,42,6.0,9.0,47,0.00,,,0.00,34.000000,,2013-04-26 14:01:00,
2013-04-26 08:11:00,49.0,30.0,-100.00,NE,42,6.0,9.0,47,0.00,,,0.00,34.000000,,2013-04-26 14:11:00,
2013-04-26 08:21:00,49.0,30.0,-100.00,NE,42,6.0,9.0,47,0.00,,,0.00,34.000000,,2013-04-26 14:21:00,
2013-04-26 08:31:00,49.0,30.0,-100.00,NE,42,6.0,9.0,47,0.00,,,0.00,34.000000,,2013-04-26 14:31:00,
2013-04-26 08:41:00,49.0,30.0,-100.00,NE,42,6.0,9.0,47,0.00,,,0.00,34.000000,,2013-04-26 14:41:00,
2013-04-26 08:42:00,54.0,33.0,-100.00,NE,48,3.0,10.0,44,0.00,,,0.00,182.000000,,2013-04-26 14:42:00,
2013-04-26 09:01:00,54.0,33.0,-100.00,NE,48,3.0,10.0,44,0.00,,,0.00,182.000000,,2013-04-26 15:01:00,
2013-04-26 09:42:00,56.0,37.0,-100.00,West,266,1.0,7.0,49,0.00,,,0.00,343.000000,,2013-04-26 15:42:00,
2013-04-26 10:03:00,56.0,37.0,-100.00,West,266,1.0,7.0,49,0.00,,,0.00,343.000000,,2013-04-26 16:03:00,
2013-04-26 10:12:00,56.0,37.0,-100.00,West,266,1.0,7.0,49,0.00,,,0.00,343.000000,,2013-04-26 16:12:00,
2013-04-26 10:23:00,56.0,37.0,-100.00,West,266,1.0,7.0,49,0.00,,,0.00,343.000000,,2013-04-26 16:23:00,
2013-04-26 10:33:00,56.0,37.0,-100.00,West,266,1.0,7.0,49,0.00,,,0.00,343.000000,,2013-04-26 16:33:00,
2013-04-26 11:02:00,60.0,35.0,-100.00,SSW,196,4.0,7.0,39,0.00,,,0.00,501.000000,,2013-04-26 17:02:00,
2013-04-26 11:12:00,60.0,35.0,-100.00,SSW,196,4.0,7.0,39,0.00,,,0.00,501.000000,,2013-04-26 17:12:00,
2013-04-26 11:21:00,60.0,35.0,-100.00,SSW,196,4.0,7.0,39,0.00,,,0.00,501.000000,,2013-04-26 17:21:00,
2013-04-26 11:31:00,60.0,35.0,-100.00,SSW,196,4.0,7.0,39,0.00,,,0.00,501.000000,,2013-04-26 17:31:00,
2013-04-26 11:41:00,60.0,35.0,-100.00,SSW,196,4.0,7.0,39,0.00,,,0.00,501.000000,,2013-04-26 17:41:00,
2013-04-26 12:02:00,63.0,33.0,-100.00,South,170,4.0,9.0,32,0.00,,,0.00,668.000000,,2013-04-26 18:02:00,
2013-04-26 12:11:00,63.0,33.0,-100.00,South,170,4.0,9.0,32,0.00,,,0.00,668.000000,,2013-04-26 18:11:00,
2013-04-26 12:22:00,63.0,33.0,-100.00,South,170,4.0,9.0,32,0.00,,,0.00,668.000000,,2013-04-26 18:22:00,
2013-04-26 12:33:00,63.0,33.0,-100.00,South,170,4.0,9.0,32,0.00,,,0.00,668.000000,,2013-04-26 18:33:00,
2013-04-26 12:41:00,63.0,33.0,-100.00,South,170,4.0,9.0,32,0.00,,,0.00,668.000000,,2013-04-26 18:41:00,
2013-04-26 13:01:00,66.0,35.0,-100.00,South,179,7.0,13.0,32,0.00,,,0.00,822.000000,,2013-04-26 19:01:00,
2013-04-26 13:11:00,66.0,35.0,-100.00,South,179,7.0,13.0,32,0.00,,,0.00,822.000000,,2013-04-26 19:11:00,
2013-04-26 13:22:00,66.0,35.0,-100.00,South,179,7.0,13.0,32,0.00,,,0.00,822.000000,,2013-04-26 19:22:00,
2013-04-26 13:31:00,66.0,35.0,-100.00,South,179,7.0,13.0,32,0.00,,,0.00,822.000000,,2013-04-26 19:31:00,
2013-04-26 13:41:00,66.0,35.0,-100.00,South,179,7.0,13.0,32,0.00,,,0.00,822.000000,,2013-04-26 19:41:00,
2013-04-26 14:02:00,66.0,34.0,-100.00,South,171,9.0,16.0,30,0.00,,,0.00,882.000000,,2013-04-26 20:02:00,
2013-04-26 14:11:00,66.0,34.0,-100.00,South,171,9.0,16.0,30,0.00,,,0.00,882.000000,,2013-04-26 20:11:00,
2013-04-26 14:21:00,66.0,34.0,-100.00,South,171,9.0,16.0,30,0.00,,,0.00,882.000000,,2013-04-26 20:21:00,
2013-04-26 14:32:00,66.0,34.0,-100.00,South,171,9.0,16.0,30,0.00,,,0.00,882.000000,,2013-04-26 20:32:00,
2013-04-26 14:41:00,66.0,34.0,-100.00,South,171,9.0,16.0,30,0.00,,,0.00,882.000000,,2013-04-26 20:41:00,
2013-04-26 14:42:00,69.0,35.0,-100.00,South,183,6.0,17.0,28,0.00,,,0.00,900.000000,,2013-04-26 20:42:00,
2013-04-26 15:01:00,69.0,35.0,-100.00,South,183,6.0,17.0,28,0.00,,,0.00,900.000000,,2013-04-26 21:01:00,
2013-04-26 15:11:00,69.0,35.0,-100.00,South,183,6.0,17.0,28,0.00,,,0.00,900.000000,,2013-04-26 21:11:00,
2013-04-26 15:21:00,69.0,35.0,-100.00,South,183,6.0,17.0,28,0.00,,,0.00,900.000000,,2013-04-26 21:21:00,
2013-04-26 15:32:00,69.0,35.0,-100.00,South,183,6.0,17.0,28,0.00,,,0.00,900.000000,,2013-04-26 21:32:00,
2013-04-26 15:42:00,70.0,35.0,-100.00,SW,223,7.0,16.0,28,0.00,,,0.00,859.000000,,2013-04-26 21:42:00,
2013-04-26 16:02:00,70.0,35.0,-100.00,SW,223,7.0,16.0,28,0.00,,,0.00,859.000000,,2013-04-26 22:02:00,
2013-04-26 16:12:00,70.0,35.0,-100.00,SW,223,7.0,16.0,28,0.00,,,0.00,859.000000,,2013-04-26 22:12:00,
2013-04-26 16:22:00,70.0,35.0,-100.00,SW,223,7.0,16.0,28,0.00,,,0.00,859.000000,,2013-04-26 22:22:00,
2013-04-26 16:32:00,70.0,35.0,-100.00,SW,223,7.0,16.0,28,0.00,,,0.00,859.000000,,2013-04-26 22:32:00,
2013-04-26 16:42:00,70.0,35.0,-100.00,South,191,8.0,16.0,28,0.00,,,0.00,768.000000,,2013-04-26 22:42:00,
2013-04-26 17:01:00,70.0,35.0,-100.00,South,191,8.0,16.0,28,0.00,,,0.00,768.000000,,2013-04-26 23:01:00,
2013-04-26 17:11:00,70.0,35.0,-100.00,South,191,8.0,16.0,28,0.00,,,0.00,768.000000,,2013-04-26 23:11:00,
2013-04-26 17:21:00,70.0,35.0,-100.00,South,191,8.0,16.0,28,0.00,,,0.00,768.000000,,2013-04-26 23:21:00,
2013-04-26 17:32:00,70.0,35.0,-100.00,South,191,8.0,16.0,28,0.00,,,0.00,768.000000,,2013-04-26 23:32:00,
2013-04-26 18:01:00,70.0,34.0,-100.00,South,181,9.0,16.0,27,0.00,,,0.00,622.000000,,2013-04-27 00:01:00,
2013-04-26 18:11:00,70.0,34.0,-100.00,South,181,9.0,16.0,27,0.00,,,0.00,622.000000,,2013-04-27 00:11:00,
2013-04-26 18:21:00,70.0,34.0,-100.00,South,181,9.0,16.0,27,0.00,,,0.00,622.000000,,2013-04-27 00:21:00,
2013-04-26 18:32:00,70.0,34.0,-100.00,South,181,9.0,16.0,27,0.00,,,0.00,622.000000,,2013-04-27 00:32:00,
2013-04-26 18:41:00,70.0,34.0,-100.00,South,181,9.0,16.0,27,0.00,,,0.00,622.000000,,2013-04-27 00:41:00,
2013-04-26 19:01:00,69.0,35.0,-100.00,South,174,8.0,15.0,28,0.00,,,0.00,389.000000,,2013-04-27 01:01:00,
2013-04-26 19:11:00,69.0,35.0,-100.00,South,174,8.0,15.0,28,0.00,,,0.00,389.000000,,2013-04-27 01:11:00,
2013-04-26 19:21:00,69.0,35.0,-100.00,South,174,8.0,15.0,28,0.00,,,0.00,389.000000,,2013-04-27 01:21:00,
2013-04-26 19:32:00,69.0,35.0,-100.00,South,174,8.0,15.0,28,0.00,,,0.00,389.000000,,2013-04-27 01:32:00,
2013-04-26 19:41:00,69.0,35.0,-100.00,South,174,8.0,15.0,28,0.00,,,0.00,389.000000,,2013-04-27 01:41:00,
2013-04-26 19:42:00,69.0,35.0,-100.00,SE,128,1.0,8.0,29,0.00,,,0.00,197.000000,,2013-04-27 01:42:00,
2013-04-26 20:01:00,69.0,35.0,-100.00,SE,128,1.0,8.0,29,0.00,,,0.00,197.000000,,2013-04-27 02:01:00,
2013-04-26 20:11:00,69.0,35.0,-100.00,SE,128,1.0,8.0,29,0.00,,,0.00,197.000000,,2013-04-27 02:11:00,
2013-04-26 20:22:00,69.0,35.0,-100.00,SE,128,1.0,8.0,29,0.00,,,0.00,197.000000,,2013-04-27 02:22:00,
2013-04-26 20:32:00,69.0,35.0,-100.00,SE,128,1.0,8.0,29,0.00,,,0.00,197.000000,,2013-04-27 02:32:00,
2013-04-26 20:42:00,66.0,34.0,-100.00,East,95,0.0,2.0,31,0.00,,,0.00,86.000000,,2013-04-27 02:42:00,
2013-04-26 21:02:00,66.0,34.0,-100.00,East,95,0.0,2.0,31,0.00,,,0.00,86.000000,,2013-04-27 03:02:00,
2013-04-26 21:11:00,66.0,34.0,-100.00,East,95,0.0,2.0,31,0.00,,,0.00,86.000000,,2013-04-27 03:11:00,
2013-04-26 21:22:00,66.0,34.0,-100.00,East,95,0.0,2.0,31,0.00,,,0.00,86.000000,,2013-04-27 03:22:00,
2013-04-26 21:32:00,66.0,34.0,-100.00,East,95,0.0,2.0,31,0.00,,,0.00,86.000000,,2013-04-27 03:32:00,
2013-04-26 21:42:00,63.0,34.0,-100.00,ENE,66,2.0,4.0,34,0.00,,,0.00,1.000000,,2013-04-27 03:42:00,
2013-04-26 22:02:00,63.0,34.0,-100.00,ENE,66,2.0,4.0,34,0.00,,,0.00,1.000000,,2013-04-27 04:02:00,
2013-04-26 22:12:00,63.0,34.0,-100.00,ENE,66,2.0,4.0,34,0.00,,,0.00,1.000000,,2013-04-27 04:12:00,
2013-04-26 22:22:00,63.0,34.0,-100.00,ENE,66,2.0,4.0,34,0.00,,,0.00,1.000000,,2013-04-27 04:22:00,
2013-04-26 22:33:00,63.0,34.0,-100.00,ENE,66,2.0,4.0,34,0.00,,,0.00,1.000000,,2013-04-27 04:33:00,
2013-04-26 22:42:00,61.0,34.0,-100.00,NE,37,4.0,9.0,36,0.00,,,0.00,0.000000,,2013-04-27 04:42:00,
2013-04-26 23:02:00,61.0,34.0,-100.00,NE,37,4.0,9.0,36,0.00,,,0.00,0.000000,,2013-04-27 05:02:00,
2013-04-26 23:12:00,61.0,34.0,-100.00,NE,37,4.0,9.0,36,0.00,,,0.00,0.000000,,2013-04-27 05:12:00,
2013-04-26 23:22:00,61.0,34.0,-100.00,NE,37,4.0,9.0,36,0.00,,,0.00,0.000000,,2013-04-27 05:22:00,
2013-04-26 23:32:00,61.0,34.0,-100.00,NE,37,4.0,9.0,36,0.00,,,0.00,0.000000,,2013-04-27 05:32:00,